Time;durP1;ratioP1;P1;durP2;ratioP2;P2;SDS_P1;SDS_P2;PMS_P1;PMS_P2;Temp;Humidity;BMP_temperature;BMP_pressure;BME280_temperature;BME280_humidity;BME280_pressure;Samples;Min_cycle;Max_cycle;Signal;HPM_P1;HPM_P2
2022/01/19 00:00:24;;;;;;;1.70;1.50;;;4.00;98.20;;;;;;4981898;28;20462;-71
2022/01/19 00:02:50;;;;;;;1.67;1.30;;;4.00;98.20;;;;;;4974770;28;20536;-71
2022/01/19 00:05:17;;;;;;;1.63;1.40;;;4.00;98.20;;;;;;4975286;28;20469;-72
2022/01/19 00:07:44;;;;;;;1.70;1.40;;;3.90;98.20;;;;;;4984638;28;20646;-73
2022/01/19 00:10:16;;;;;;;1.70;1.40;;;3.90;98.20;;;;;;4966387;28;20478;-73
2022/01/19 00:12:45;;;;;;;1.67;1.30;;;3.90;98.20;;;;;;4974020;28;20481;-73
2022/01/19 00:15:12;;;;;;;1.67;1.40;;;3.90;98.20;;;;;;4967198;28;20473;-72
2022/01/19 00:17:39;;;;;;;1.67;1.40;;;3.90;98.20;;;;;;4983612;28;20784;-72
2022/01/19 00:20:08;;;;;;;1.70;1.40;;;3.90;98.20;;;;;;4967826;28;20844;-73
2022/01/19 00:22:35;;;;;;;2.43;2.20;;;3.90;98.20;;;;;;4983530;28;20786;-73
2022/01/19 00:25:02;;;;;;;1.67;1.40;;;3.90;98.20;;;;;;4984267;28;20616;-73
2022/01/19 00:27:30;;;;;;;1.67;1.40;;;3.90;98.20;;;;;;4966648;28;20489;-72
2022/01/19 00:29:57;;;;;;;1.60;1.40;;;3.90;98.20;;;;;;4973284;28;20470;-73
2022/01/19 00:32:24;;;;;;;1.70;1.50;;;3.90;98.20;;;;;;4973421;28;20486;-73
2022/01/19 00:34:51;;;;;;;1.70;1.50;;;3.90;98.20;;;;;;4979240;28;20552;-72
2022/01/19 00:37:18;;;;;;;1.70;1.50;;;3.90;98.20;;;;;;4982689;28;20495;-73
2022/01/19 00:39:44;;;;;;;1.70;1.50;;;3.90;98.20;;;;;;4968399;28;20849;-73
2022/01/19 00:42:11;;;;;;;1.70;1.50;;;3.90;98.20;;;;;;4976273;28;20611;-72
2022/01/19 00:44:39;;;;;;;1.70;1.40;;;3.80;98.20;;;;;;4972565;28;20489;-73
2022/01/19 00:47:06;;;;;;;1.60;1.40;;;3.80;98.20;;;;;;4974908;28;20492;-73
2022/01/19 00:49:33;;;;;;;2.17;1.97;;;3.80;98.20;;;;;;4973698;28;20957;-73
2022/01/19 00:52:00;;;;;;;1.67;1.43;;;3.70;98.20;;;;;;4970003;28;20484;-73
2022/01/19 00:54:26;;;;;;;1.63;1.30;;;3.70;98.20;;;;;;4982570;28;20461;-73
2022/01/19 00:56:53;;;;;;;3.80;3.50;;;3.70;98.20;;;;;;4972092;28;20485;-73
2022/01/19 00:59:20;;;;;;;1.67;1.40;;;3.70;98.20;;;;;;4977220;28;20469;-73
2022/01/19 01:01:48;;;;;;;2.20;2.00;;;3.70;98.20;;;;;;4964514;28;20507;-73
2022/01/19 01:04:15;;;;;;;1.70;1.50;;;3.60;98.20;;;;;;4973261;28;20484;-73
2022/01/19 01:06:42;;;;;;;1.70;1.40;;;3.70;98.20;;;;;;4976540;28;20484;-73
2022/01/19 01:09:09;;;;;;;1.70;1.50;;;3.70;98.20;;;;;;4973079;28;20505;-73
2022/01/19 01:11:45;;;;;;;1.73;1.63;;;3.60;98.20;;;;;;4968062;28;20493;-73
2022/01/19 01:17:11;;;;;;;1.70;1.47;;;3.70;98.20;;;;;;4968856;28;21123;-73
2022/01/19 01:19:38;;;;;;;1.70;1.60;;;3.70;98.20;;;;;;4982233;28;20465;-73
2022/01/19 01:22:05;;;;;;;1.70;1.50;;;3.70;98.20;;;;;;4968517;28;20500;-72
2022/01/19 01:24:32;;;;;;;1.70;1.50;;;3.70;98.20;;;;;;4986491;28;20493;-72
2022/01/19 01:26:59;;;;;;;1.70;1.40;;;3.70;98.20;;;;;;4978578;28;20496;-73
2022/01/19 01:29:25;;;;;;;1.70;1.40;;;3.70;98.20;;;;;;4983551;28;20647;-72
2022/01/19 01:31:52;;;;;;;1.70;1.50;;;3.70;98.20;;;;;;4970215;28;20512;-72
2022/01/19 01:34:20;;;;;;;1.67;1.40;;;3.70;98.20;;;;;;4988067;28;20860;-72
2022/01/19 01:36:47;;;;;;;1.70;1.40;;;3.70;98.20;;;;;;4977772;28;20485;-72
2022/01/19 01:39:14;;;;;;;1.70;1.40;;;3.70;98.20;;;;;;4987388;28;20460;-72
2022/01/19 01:41:41;;;;;;;1.60;1.40;;;3.70;98.20;;;;;;4981121;28;20487;-72
2022/01/19 01:44:07;;;;;;;1.70;1.47;;;3.80;98.20;;;;;;4979591;28;20484;-72
2022/01/19 01:46:43;;;;;;;1.70;1.50;;;3.90;98.20;;;;;;4972523;28;20473;-72
2022/01/19 01:49:16;;;;;;;1.70;1.50;;;4.00;98.20;;;;;;4997751;28;20532;-72
2022/01/19 01:54:29;;;;;;;1.70;1.50;;;4.20;98.20;;;;;;4985113;28;20806;-72
2022/01/19 01:56:56;;;;;;;1.67;1.40;;;4.30;98.20;;;;;;4971257;28;20485;-72
2022/01/19 01:59:23;;;;;;;1.67;1.40;;;4.40;98.20;;;;;;4976693;28;20461;-73
2022/01/19 02:01:50;;;;;;;1.63;1.40;;;4.40;98.20;;;;;;4969096;28;20491;-72
2022/01/19 02:04:21;;;;;;;1.70;1.40;;;4.40;98.20;;;;;;4984125;28;20465;-73
2022/01/19 02:07:15;;;;;;;1.70;1.43;;;4.40;98.20;;;;;;4980148;28;20978;-73
2022/01/19 02:09:45;;;;;;;1.70;1.50;;;4.40;98.20;;;;;;4976349;28;20579;-72
2022/01/19 02:23:20;;;;;;;1.93;1.73;;;4.60;98.20;;;;;;4957115;28;20534;-73
2022/01/19 02:25:49;;;;;;;1.67;1.40;;;4.60;98.20;;;;;;4967484;28;20490;-72
2022/01/19 02:31:34;;;;;;;1.70;1.40;;;4.70;98.20;;;;;;4957796;28;20477;-72
2022/01/19 02:42:19;;;;;;;1.70;1.40;;;4.80;98.20;;;;;;4972287;28;21059;-73
2022/01/19 02:50:14;;;;;;;1.70;1.40;;;4.80;98.20;;;;;;4972831;28;20506;-73
2022/01/19 02:52:42;;;;;;;1.70;1.43;;;4.80;98.20;;;;;;4967125;28;20623;-73
2022/01/19 02:55:09;;;;;;;1.70;1.60;;;4.80;98.20;;;;;;4979049;28;20481;-73
2022/01/19 02:57:37;;;;;;;1.70;1.40;;;4.80;98.20;;;;;;4969571;28;21017;-73
2022/01/19 03:11:07;;;;;;;1.70;1.50;;;4.80;98.20;;;;;;4963091;28;20485;-73
2022/01/19 03:13:33;;;;;;;1.63;1.40;;;4.80;98.20;;;;;;4980697;28;20466;-73
2022/01/19 03:16:00;;;;;;;2.23;2.03;;;4.80;98.20;;;;;;4961362;28;20480;-73
2022/01/19 03:18:27;;;;;;;1.60;1.30;;;4.80;98.20;;;;;;4975344;28;20469;-73
2022/01/19 03:20:54;;;;;;;1.70;1.50;;;4.80;98.20;;;;;;4964609;28;20490;-73
2022/01/19 03:23:23;;;;;;;1.70;1.40;;;4.80;98.20;;;;;;4985268;28;20465;-73
2022/01/19 03:25:50;;;;;;;1.70;1.40;;;4.80;98.20;;;;;;4965651;28;20462;-73
2022/01/19 03:28:18;;;;;;;1.63;1.30;;;4.80;98.20;;;;;;4984600;28;20671;-73
2022/01/19 03:30:46;;;;;;;2.93;2.73;;;4.80;98.20;;;;;;4982299;28;20767;-73
2022/01/19 03:33:13;;;;;;;1.67;1.40;;;4.80;98.20;;;;;;4959189;28;20493;-73
2022/01/19 03:35:40;;;;;;;1.63;1.30;;;4.80;98.20;;;;;;4978206;28;20847;-73
2022/01/19 03:38:08;;;;;;;1.70;1.40;;;4.80;98.20;;;;;;4979394;28;20477;-73
2022/01/19 03:40:36;;;;;;;1.60;1.30;;;4.80;98.20;;;;;;4977920;28;20456;-73
2022/01/19 03:43:05;;;;;;;1.67;1.40;;;4.70;98.20;;;;;;4986599;28;20884;-73
2022/01/19 03:45:32;;;;;;;1.60;1.30;;;4.80;98.20;;;;;;4985504;28;20976;-73
2022/01/19 03:48:15;;;;;;;1.63;1.30;;;4.80;98.20;;;;;;4976226;28;20985;-73
2022/01/19 03:50:42;;;;;;;1.70;1.50;;;4.80;98.20;;;;;;4972258;28;20464;-73
2022/01/19 03:53:08;;;;;;;1.67;1.40;;;4.80;98.20;;;;;;4972862;28;20517;-73
2022/01/19 03:55:37;;;;;;;1.67;1.40;;;4.80;98.20;;;;;;4974178;28;20490;-73
2022/01/19 03:58:03;;;;;;;1.60;1.30;;;4.80;98.20;;;;;;4974287;28;20853;-73
2022/01/19 04:00:34;;;;;;;1.60;1.30;;;4.70;98.20;;;;;;4973643;28;20461;-73
2022/01/19 04:03:01;;;;;;;1.60;1.30;;;4.70;98.20;;;;;;4975314;28;20488;-73
2022/01/19 04:05:40;;;;;;;1.63;1.30;;;4.70;98.20;;;;;;4983384;28;20525;-74
2022/01/19 04:08:07;;;;;;;1.63;1.30;;;4.70;98.20;;;;;;4970759;28;20509;-74
2022/01/19 04:10:33;;;;;;;1.60;1.30;;;4.70;98.20;;;;;;4967572;28;20466;-73
2022/01/19 04:13:11;;;;;;;1.63;1.40;;;4.70;98.20;;;;;;4971312;28;20482;-73
2022/01/19 04:15:37;;;;;;;1.60;1.30;;;4.70;98.20;;;;;;4979119;28;20464;-73
2022/01/19 04:18:04;;;;;;;1.70;1.40;;;4.70;98.20;;;;;;4972822;28;20488;-73
2022/01/19 04:20:38;;;;;;;1.70;1.50;;;4.70;98.20;;;;;;4976336;28;20905;-73
2022/01/19 04:23:04;;;;;;;1.63;1.30;;;4.70;98.20;;;;;;4967881;28;20497;-73
2022/01/19 04:25:31;;;;;;;1.70;1.40;;;4.60;98.20;;;;;;4979049;28;20481;-73
2022/01/19 04:27:58;;;;;;;1.70;1.40;;;4.60;98.20;;;;;;4971255;28;21013;-73
2022/01/19 04:30:28;;;;;;;1.70;1.50;;;4.60;98.20;;;;;;4976801;28;20470;-73
2022/01/19 04:33:04;;;;;;;1.70;1.50;;;4.60;98.20;;;;;;4977816;28;20489;-73
2022/01/19 04:35:43;;;;;;;1.70;1.40;;;4.60;98.20;;;;;;4965418;28;20457;-73
2022/01/19 05:01:32;;;;;;;1.60;1.40;;;4.70;98.20;;;;;;4986372;28;20532;-73
2022/01/19 05:03:17;;;;;;;1.67;1.40;;;4.70;98.20;;;;;;4980080;28;20500;-73
2022/01/19 05:05:50;;;;;;;1.70;1.40;;;4.70;98.20;;;;;;4973574;28;20835;-73
2022/01/19 05:08:33;;;;;;;1.70;1.40;;;4.70;98.20;;;;;;4973196;28;20512;-73
2022/01/19 05:13:51;;;;;;;1.63;1.30;;;4.70;98.20;;;;;;4982609;28;20465;-73
2022/01/19 05:16:19;;;;;;;1.60;1.40;;;4.70;98.20;;;;;;4977267;28;20888;-73
2022/01/19 05:18:47;;;;;;;1.63;1.40;;;4.70;98.20;;;;;;4981476;28;20485;-73
2022/01/19 05:21:14;;;;;;;1.63;1.40;;;4.70;98.20;;;;;;4968327;28;21000;-73
2022/01/19 05:23:40;;;;;;;1.63;1.40;;;4.70;98.20;;;;;;4986163;28;20487;-73
2022/01/19 05:26:07;;;;;;;1.63;1.30;;;4.70;98.20;;;;;;4974802;28;20631;-74
2022/01/19 05:28:34;;;;;;;1.70;1.50;;;4.70;98.20;;;;;;4985564;28;20494;-74
2022/01/19 05:31:01;;;;;;;1.60;1.30;;;4.80;98.20;;;;;;4975024;28;20467;-73
2022/01/19 05:33:28;;;;;;;1.67;1.30;;;4.80;98.20;;;;;;4985258;28;20546;-74
2022/01/19 05:35:56;;;;;;;1.70;1.40;;;4.80;98.20;;;;;;4961845;28;20472;-73
2022/01/19 05:38:22;;;;;;;1.60;1.37;;;4.80;98.20;;;;;;4988350;28;20496;-73
2022/01/19 05:40:49;;;;;;;1.70;1.37;;;4.80;98.20;;;;;;4969465;28;20496;-73
2022/01/19 05:43:16;;;;;;;1.70;1.37;;;4.80;98.20;;;;;;4985998;28;20461;-73
2022/01/19 05:45:43;;;;;;;1.60;1.30;;;4.80;98.20;;;;;;4977742;28;20947;-74
2022/01/19 05:48:10;;;;;;;1.70;1.43;;;4.80;98.20;;;;;;4974440;28;20573;-73
2022/01/19 05:50:37;;;;;;;1.67;1.40;;;4.80;98.20;;;;;;4971075;28;20495;-73
2022/01/19 05:53:05;;;;;;;1.67;1.30;;;4.90;98.20;;;;;;4989446;28;20889;-74
2022/01/19 05:55:31;;;;;;;1.60;1.40;;;4.90;98.20;;;;;;4978583;28;20473;-74
2022/01/19 05:57:58;;;;;;;1.70;1.60;;;4.90;98.20;;;;;;4978393;28;20513;-74
2022/01/19 06:00:25;;;;;;;1.60;1.30;;;4.90;98.20;;;;;;4970632;28;20466;-73
2022/01/19 06:02:52;;;;;;;1.60;1.30;;;4.80;98.20;;;;;;4967726;28;20489;-74
2022/01/19 06:05:19;;;;;;;1.70;1.40;;;4.90;98.20;;;;;;4982353;28;20470;-73
2022/01/19 06:07:48;;;;;;;1.70;1.40;;;4.90;98.20;;;;;;4975414;28;20528;-73
2022/01/19 06:12:57;;;;;;;1.70;1.30;;;4.90;98.20;;;;;;4985951;28;20512;-73
2022/01/19 06:15:24;;;;;;;1.63;1.40;;;4.90;98.20;;;;;;4976858;28;20479;-73
2022/01/19 06:17:51;;;;;;;1.67;1.30;;;4.90;98.20;;;;;;4984741;28;20499;-73
2022/01/19 06:20:17;;;;;;;1.70;1.40;;;4.90;98.20;;;;;;4972344;28;20802;-74
2022/01/19 06:22:44;;;;;;;1.70;1.33;;;4.90;98.20;;;;;;4970141;28;20964;-76
2022/01/19 06:25:11;;;;;;;1.70;1.47;;;4.90;98.20;;;;;;4980134;28;21357;-76
2022/01/19 06:27:39;;;;;;;1.63;1.30;;;4.90;98.20;;;;;;4976099;28;20531;-73
2022/01/19 06:30:08;;;;;;;1.70;1.30;;;4.90;98.20;;;;;;4970851;28;20618;-74
2022/01/19 06:32:34;;;;;;;1.63;1.30;;;4.90;98.20;;;;;;4972829;28;20978;-74
2022/01/19 06:35:01;;;;;;;1.70;1.40;;;4.90;98.20;;;;;;4979767;28;20473;-74
2022/01/19 06:37:28;;;;;;;1.67;1.33;;;4.90;98.20;;;;;;4976716;28;20500;-74
2022/01/19 06:39:55;;;;;;;1.70;1.40;;;4.80;98.20;;;;;;4984462;28;20470;-74
2022/01/19 06:42:21;;;;;;;1.63;1.30;;;4.80;98.20;;;;;;4980052;28;20484;-73
2022/01/19 06:44:50;;;;;;;1.60;1.30;;;4.80;98.20;;;;;;4975726;28;20465;-75
2022/01/19 06:47:16;;;;;;;1.60;1.30;;;4.80;98.20;;;;;;4969502;28;20493;-74
2022/01/19 06:49:43;;;;;;;1.63;1.30;;;4.80;98.20;;;;;;4970754;28;20482;-73
2022/01/19 06:52:10;;;;;;;1.60;1.30;;;4.80;98.20;;;;;;4962933;28;21008;-74
2022/01/19 06:54:37;;;;;;;1.60;1.30;;;4.80;98.20;;;;;;4983114;28;20470;-72
2022/01/19 06:57:05;;;;;;;1.63;1.30;;;4.80;98.20;;;;;;4986181;28;20853;-73
2022/01/19 06:59:32;;;;;;;1.70;1.40;;;4.80;98.20;;;;;;4987451;28;20889;-74
2022/01/19 07:02:01;;;;;;;1.70;1.40;;;4.80;98.20;;;;;;4970236;28;20492;-74
2022/01/19 07:04:28;;;;;;;1.70;1.40;;;4.80;98.20;;;;;;4977694;28;20469;-74
2022/01/19 07:06:54;;;;;;;1.60;1.40;;;4.80;98.20;;;;;;4981906;28;20477;-73
2022/01/19 07:09:21;;;;;;;1.67;1.30;;;4.80;98.20;;;;;;4976757;28;20519;-73
2022/01/19 07:11:48;;;;;;;1.70;1.40;;;4.80;98.20;;;;;;4972594;28;21036;-73
2022/01/19 07:14:17;;;;;;;1.67;1.30;;;4.80;98.20;;;;;;4976794;28;20488;-73
2022/01/19 07:16:44;;;;;;;1.70;1.37;;;4.80;98.20;;;;;;4973296;28;20679;-75
2022/01/19 07:19:13;;;;;;;1.60;1.30;;;4.80;98.20;;;;;;4978256;28;20500;-74
2022/01/19 07:21:40;;;;;;;1.70;1.50;;;4.80;98.20;;;;;;4967353;28;20481;-73
2022/01/19 07:24:08;;;;;;;1.70;1.40;;;4.80;98.20;;;;;;4978031;28;21058;-73
2022/01/19 07:26:34;;;;;;;1.60;1.30;;;4.80;98.20;;;;;;4970902;28;20781;-73
2022/01/19 07:29:01;;;;;;;1.70;1.37;;;4.80;98.20;;;;;;4984833;28;20486;-74
2022/01/19 07:31:28;;;;;;;1.70;1.50;;;4.80;98.20;;;;;;4965242;28;20477;-74
2022/01/19 07:33:55;;;;;;;1.60;1.30;;;4.80;98.20;;;;;;4985493;28;20519;-75
2022/01/19 07:36:23;;;;;;;1.63;1.30;;;4.80;98.20;;;;;;4971212;28;20477;-74
2022/01/19 07:38:50;;;;;;;1.60;1.30;;;4.80;98.20;;;;;;4980097;28;20854;-77
2022/01/19 07:41:17;;;;;;;1.60;1.40;;;4.80;98.20;;;;;;4959229;28;20604;-75
2022/01/19 07:43:44;;;;;;;1.60;1.30;;;4.80;98.20;;;;;;4972615;28;20469;-74
2022/01/19 07:46:11;;;;;;;1.60;1.30;;;4.80;98.20;;;;;;4962383;28;20982;-75
2022/01/19 07:48:38;;;;;;;1.70;1.40;;;4.80;98.20;;;;;;4980274;28;20489;-74
2022/01/19 07:51:05;;;;;;;1.70;1.40;;;4.80;98.20;;;;;;4959408;28;20498;-75
2022/01/19 07:53:33;;;;;;;1.70;1.40;;;4.80;98.20;;;;;;4982519;28;20795;-74
2022/01/19 07:56:00;;;;;;;1.60;1.30;;;4.70;98.20;;;;;;4964201;28;20564;-73
2022/01/19 07:58:27;;;;;;;1.70;1.47;;;4.80;98.20;;;;;;4986694;28;20679;-74
2022/01/19 08:00:54;;;;;;;1.70;1.40;;;4.80;98.20;;;;;;4959690;28;20570;-75
2022/01/19 08:03:21;;;;;;;1.63;1.40;;;4.70;98.20;;;;;;4977318;28;20927;-76
2022/01/19 08:05:48;;;;;;;1.67;1.40;;;4.80;98.20;;;;;;4956528;28;20468;-74
2022/01/19 08:08:16;;;;;;;1.70;1.40;;;4.70;98.20;;;;;;4978255;28;20505;-75
2022/01/19 08:10:45;;;;;;;1.60;1.30;;;4.70;98.20;;;;;;4971524;28;21079;-74
2022/01/19 08:13:14;;;;;;;1.60;1.40;;;4.70;98.20;;;;;;4973987;28;20482;-74
2022/01/19 08:15:44;;;;;;;1.70;1.40;;;4.70;98.20;;;;;;4965623;28;20489;-75
2022/01/19 08:18:11;;;;;;;1.63;1.37;;;4.70;98.20;;;;;;4971361;28;20516;-73
2022/01/19 08:20:40;;;;;;;1.63;1.40;;;4.70;98.20;;;;;;4961273;28;22046;-74
2022/01/19 08:23:07;;;;;;;1.60;1.30;;;4.70;98.20;;;;;;4978095;28;20519;-73
2022/01/19 08:25:34;;;;;;;1.70;1.47;;;4.70;98.20;;;;;;4971750;28;20962;-73
2022/01/19 08:28:05;;;;;;;1.60;1.30;;;4.70;98.20;;;;;;4975478;28;20481;-74
2022/01/19 08:30:32;;;;;;;1.63;1.37;;;4.70;98.20;;;;;;4960333;28;20486;-73
2022/01/19 08:32:59;;;;;;;1.63;1.30;;;4.70;98.20;;;;;;4969030;28;20544;-72
2022/01/19 08:35:26;;;;;;;1.60;1.30;;;4.70;98.20;;;;;;4966320;28;20841;-75
2022/01/19 08:37:54;;;;;;;1.63;1.30;;;4.70;98.20;;;;;;4970575;28;20489;-74
2022/01/19 08:40:26;;;;;;;1.70;1.40;;;4.80;98.20;;;;;;4966007;28;20485;-73
2022/01/19 08:42:53;;;;;;;1.70;1.50;;;4.70;98.20;;;;;;4961608;28;20482;-76
2022/01/19 08:45:22;;;;;;;1.70;1.40;;;4.70;98.20;;;;;;4970534;28;20461;-73
2022/01/19 08:47:50;;;;;;;1.70;1.30;;;4.80;98.20;;;;;;4961893;28;21028;-74
2022/01/19 08:50:18;;;;;;;1.70;1.40;;;4.70;98.20;;;;;;4965684;28;20689;-74
2022/01/19 08:52:45;;;;;;;1.70;1.50;;;4.80;98.20;;;;;;4961888;28;20481;-73
2022/01/19 08:55:13;;;;;;;1.67;1.30;;;4.80;98.20;;;;;;4968720;28;20473;-74
2022/01/19 08:57:39;;;;;;;1.67;1.30;;;4.80;98.20;;;;;;4960351;28;20496;-73
2022/01/19 09:00:09;;;;;;;1.60;1.30;;;4.80;98.20;;;;;;4967215;28;20457;-73
2022/01/19 09:02:37;;;;;;;1.60;1.30;;;4.80;98.20;;;;;;4950375;28;20489;-72
2022/01/19 09:05:05;;;;;;;1.60;1.30;;;4.80;98.20;;;;;;4967371;28;20470;-73
2022/01/19 09:07:32;;;;;;;1.60;1.30;;;4.80;98.20;;;;;;4958334;28;20493;-72
2022/01/19 09:10:00;;;;;;;1.63;1.30;;;4.80;98.20;;;;;;4964801;28;20489;-74
2022/01/19 09:12:28;;;;;;;1.60;1.30;;;4.80;98.20;;;;;;4957208;28;20490;-74
2022/01/19 09:14:54;;;;;;;1.60;1.30;;;4.80;98.20;;;;;;4963899;28;20470;-72
2022/01/19 09:17:25;;;;;;;1.60;1.27;;;4.80;98.20;;;;;;4954687;28;21043;-73
2022/01/19 09:19:53;;;;;;;1.63;1.40;;;4.80;98.20;;;;;;4970132;28;20557;-75
2022/01/19 09:22:21;;;;;;;1.60;1.30;;;4.80;98.20;;;;;;4962789;28;21750;-73
2022/01/19 09:24:54;;;;;;;1.63;1.40;;;4.80;98.20;;;;;;4966990;28;20482;-76
2022/01/19 09:27:23;;;;;;;1.60;1.30;;;4.90;98.20;;;;;;4954995;28;20485;-72
2022/01/19 09:29:50;;;;;;;1.60;1.30;;;4.90;98.20;;;;;;4963822;28;20497;-73
2022/01/19 09:32:18;;;;;;;1.60;1.30;;;4.90;98.20;;;;;;4964701;28;20589;-72
2022/01/19 09:34:49;;;;;;;1.67;1.37;;;4.90;98.20;;;;;;4972748;28;20473;-76
2022/01/19 09:37:18;;;;;;;1.60;1.40;;;4.90;98.20;;;;;;4970453;28;20591;-72
2022/01/19 09:39:45;;;;;;;1.60;1.30;;;4.90;98.20;;;;;;4967747;28;20464;-75
2022/01/19 09:42:13;;;;;;;1.70;1.40;;;4.90;98.20;;;;;;4966991;28;20851;-74
2022/01/19 09:44:40;;;;;;;1.60;1.30;;;4.90;98.20;;;;;;4965522;28;20472;-74
2022/01/19 09:47:08;;;;;;;1.63;1.37;;;5.00;98.20;;;;;;4971106;28;20494;-73
2022/01/19 09:49:37;;;;;;;1.67;1.30;;;5.00;98.20;;;;;;4971229;28;20590;-74
2022/01/19 09:52:05;;;;;;;1.60;1.30;;;5.00;98.20;;;;;;4967779;28;20489;-71
2022/01/19 09:54:34;;;;;;;1.67;1.30;;;5.00;98.20;;;;;;4967962;28;20504;-72
2022/01/19 09:57:01;;;;;;;1.67;1.40;;;5.10;98.20;;;;;;4975440;23;20495;-73
2022/01/19 09:59:28;;;;;;;1.60;1.40;;;5.10;98.20;;;;;;5010688;28;20487;-71
2022/01/19 10:01:56;;;;;;;1.70;1.60;;;5.10;98.20;;;;;;5004912;28;20491;-71
2022/01/19 10:04:25;;;;;;;1.70;1.40;;;5.10;98.20;;;;;;5011109;28;20470;-74
2022/01/19 10:07:10;;;;;;;1.60;1.40;;;5.10;98.20;;;;;;5003842;28;20506;-73
2022/01/19 10:09:53;;;;;;;1.60;1.30;;;5.10;98.20;;;;;;4987707;28;20460;-72
2022/01/19 10:18:08;;;;;;;1.60;1.30;;;5.10;98.20;;;;;;4979837;28;20484;-76
2022/01/19 10:20:35;;;;;;;1.60;1.30;;;5.10;98.20;;;;;;4975284;28;20475;-72
2022/01/19 10:23:01;;;;;;;1.70;1.40;;;5.10;98.20;;;;;;4984795;28;20496;-73
2022/01/19 10:25:47;;;;;;;2.53;2.33;;;5.10;98.20;;;;;;4976325;28;20528;-72
2022/01/19 10:28:14;;;;;;;1.70;1.30;;;5.10;98.20;;;;;;4965495;28;20516;-71
2022/01/19 10:30:41;;;;;;;1.63;1.30;;;5.10;98.20;;;;;;4977487;28;20519;-71
2022/01/19 10:33:07;;;;;;;1.63;1.30;;;5.10;98.20;;;;;;4979366;28;21008;-72
2022/01/19 10:35:37;;;;;;;1.60;1.40;;;5.10;98.20;;;;;;4979026;28;20977;-74
2022/01/19 10:38:17;;;;;;;1.60;1.30;;;5.10;98.20;;;;;;4981288;28;20846;-72
2022/01/19 10:41:09;;;;;;;1.60;1.30;;;5.20;98.20;;;;;;4974238;28;20497;-73
2022/01/19 10:43:42;;;;;;;1.70;1.40;;;5.20;98.20;;;;;;4962424;28;20985;-72
2022/01/19 10:46:27;;;;;;;1.90;1.70;;;5.20;98.20;;;;;;4966656;28;20485;-74
2022/01/19 10:49:00;;;;;;;2.73;2.53;;;5.30;98.20;;;;;;4984203;28;20488;-73
2022/01/19 10:51:36;;;;;;;1.60;1.30;;;5.30;98.20;;;;;;4966816;28;20570;-73
2022/01/19 10:54:13;;;;;;;1.60;1.30;;;5.30;98.20;;;;;;4982599;28;20476;-73
2022/01/19 10:56:42;;;;;;;1.63;1.30;;;5.40;98.20;;;;;;4969427;28;20488;-73
2022/01/19 10:59:12;;;;;;;1.60;1.30;;;5.40;98.20;;;;;;4979928;28;20496;-73
2022/01/19 11:01:44;;;;;;;1.63;1.30;;;5.40;98.20;;;;;;4963656;28;20850;-72
2022/01/19 11:04:24;;;;;;;1.70;1.50;;;5.40;98.20;;;;;;4989424;28;20469;-72
2022/01/19 11:06:53;;;;;;;1.70;1.50;;;5.40;98.20;;;;;;4973886;28;20484;-73
2022/01/19 11:09:24;;;;;;;1.63;1.30;;;5.40;98.20;;;;;;4977937;28;20465;-73
2022/01/19 11:11:53;;;;;;;1.60;1.23;;;5.40;98.20;;;;;;4966923;28;20489;-72
2022/01/19 11:14:23;;;;;;;2.43;2.23;;;5.40;98.20;;;;;;4970779;28;20554;-72
2022/01/19 11:16:51;;;;;;;1.60;1.30;;;5.50;98.20;;;;;;4970226;28;20498;-73
2022/01/19 11:19:19;;;;;;;1.63;1.30;;;5.40;98.20;;;;;;4983157;28;20465;-72
2022/01/19 11:22:10;;;;;;;1.60;1.20;;;5.40;98.20;;;;;;4972944;28;20481;-73
2022/01/19 11:24:46;;;;;;;1.70;1.40;;;5.40;98.20;;;;;;4976177;28;20501;-73
2022/01/19 11:27:15;;;;;;;1.60;1.30;;;5.50;98.20;;;;;;4972017;28;20483;-72
2022/01/19 11:29:42;;;;;;;1.60;1.30;;;5.50;98.20;;;;;;4977795;28;20465;-73
2022/01/19 11:32:18;;;;;;;1.70;1.50;;;5.50;98.20;;;;;;4976162;28;20863;-74
2022/01/19 11:34:49;;;;;;;1.60;1.30;;;5.50;98.20;;;;;;4977543;28;20925;-72
2022/01/19 11:37:32;;;;;;;1.60;1.30;;;5.60;98.20;;;;;;4970223;28;20520;-73
2022/01/19 11:40:02;;;;;;;1.63;1.30;;;5.60;98.20;;;;;;4969968;28;20468;-76
2022/01/19 11:42:30;;;;;;;1.63;1.30;;;5.60;98.20;;;;;;4978631;28;20487;-72
2022/01/19 11:44:57;;;;;;;4.07;2.77;;;5.60;98.20;;;;;;4975724;28;20530;-72
2022/01/19 11:47:28;;;;;;;1.60;1.30;;;5.60;98.20;;;;;;4973374;28;20570;-71
2022/01/19 11:49:58;;;;;;;1.60;1.30;;;5.60;98.20;;;;;;4969661;28;20488;-73
2022/01/19 11:52:28;;;;;;;1.70;1.37;;;5.60;98.20;;;;;;4977842;28;20490;-71
2022/01/19 11:55:13;;;;;;;1.70;1.40;;;5.60;98.20;;;;;;4976639;28;20470;-74
2022/01/19 11:57:42;;;;;;;1.70;1.40;;;5.60;98.20;;;;;;4980096;28;20960;-74
2022/01/19 12:00:23;;;;;;;1.90;1.70;;;5.60;98.20;;;;;;4974298;28;20905;-74
2022/01/19 12:02:55;;;;;;;1.70;1.40;;;5.60;98.20;;;;;;4965987;28;21024;-75
2022/01/19 12:05:28;;;;;;;1.70;1.30;;;5.60;98.20;;;;;;4974613;28;20861;-73
2022/01/19 12:07:57;;;;;;;1.67;1.30;;;5.60;98.20;;;;;;4981612;28;20989;-72
2022/01/19 12:10:45;;;;;;;1.60;1.30;;;5.50;98.20;;;;;;4975713;28;20532;-73
2022/01/19 12:16:53;;;;;;;1.70;1.40;;;5.50;98.20;;;;;;4967232;28;20488;-72
2022/01/19 12:19:26;;;;;;;1.67;1.47;;;5.50;98.20;;;;;;4982659;28;20557;-75
2022/01/19 12:22:05;;;;;;;1.60;1.30;;;5.50;98.20;;;;;;4975643;28;20901;-72
2022/01/19 12:24:37;;;;;;;1.70;1.40;;;5.40;98.20;;;;;;4986541;28;20464;-73
2022/01/19 12:27:08;;;;;;;1.67;1.40;;;5.40;98.20;;;;;;4964380;28;20664;-73
2022/01/19 12:30:08;;;;;;;1.67;1.40;;;5.40;98.20;;;;;;4973526;28;20481;-73
2022/01/19 12:32:41;;;;;;;1.60;1.40;;;5.40;98.20;;;;;;4975723;28;20500;-72
2022/01/19 12:35:11;;;;;;;1.60;1.30;;;5.40;98.20;;;;;;4982104;28;20896;-73
2022/01/19 12:37:41;;;;;;;1.70;1.40;;;5.40;98.20;;;;;;4983089;28;20495;-72
2022/01/19 12:40:37;;;;;;;1.63;1.30;;;5.40;98.20;;;;;;4977566;28;20465;-72
2022/01/19 12:43:06;;;;;;;1.73;1.63;;;5.40;98.20;;;;;;4975191;28;20493;-73
2022/01/19 12:45:36;;;;;;;1.60;1.30;;;5.40;98.20;;;;;;4976626;28;20466;-73
2022/01/19 12:48:05;;;;;;;1.67;1.40;;;5.40;98.20;;;;;;4959284;28;20498;-73
2022/01/19 12:50:41;;;;;;;1.60;1.30;;;5.40;98.20;;;;;;4969035;28;20550;-75
2022/01/19 12:53:12;;;;;;;1.67;1.30;;;5.40;98.20;;;;;;4973699;28;21047;-72
2022/01/19 12:55:41;;;;;;;1.73;1.63;;;5.40;98.20;;;;;;4973915;28;20481;-75
2022/01/19 12:58:14;;;;;;;1.67;1.40;;;5.40;98.20;;;;;;4975088;28;21029;-73
2022/01/19 13:00:46;;;;;;;3.00;1.87;;;5.40;98.20;;;;;;4978293;28;20819;-74
2022/01/19 13:03:16;;;;;;;1.60;1.30;;;5.40;98.20;;;;;;4973719;28;20483;-73
